createdAt,value
2022-12-23T00:01:52.173Z,8
2022-12-23T00:08:02.664Z,6
2022-12-23T00:14:20.610Z,7
2022-12-23T00:20:32.211Z,6
2022-12-23T00:26:42.882Z,11
2022-12-23T00:32:53.686Z,6
2022-12-23T00:39:04.214Z,11
2022-12-23T00:45:14.876Z,5
2022-12-23T00:51:25.563Z,5
2022-12-23T00:58:42.142Z,3
2022-12-23T01:04:52.792Z,4
2022-12-23T01:11:03.555Z,4
2022-12-23T01:17:14.272Z,4
2022-12-23T01:23:24.820Z,3
2022-12-23T01:29:35.527Z,4
2022-12-23T01:35:46.125Z,4
2022-12-23T01:41:56.835Z,4
2022-12-23T01:48:07.472Z,2
2022-12-23T01:54:18.116Z,3
2022-12-23T02:00:20.585Z,3
2022-12-23T02:06:31.305Z,3
2022-12-23T02:12:41.947Z,3
2022-12-23T02:18:52.594Z,4
2022-12-23T02:25:03.270Z,3
2022-12-23T02:30:16.173Z,4
2022-12-23T02:36:26.849Z,2
2022-12-23T02:42:37.564Z,3
2022-12-23T02:48:48.204Z,3
2022-12-23T02:54:58.859Z,4
2022-12-23T03:01:01.345Z,3
2022-12-23T03:07:18.206Z,5
2022-12-23T03:13:22.659Z,4
2022-12-23T03:19:33.332Z,2
2022-12-23T03:25:43.986Z,2
2022-12-23T03:31:54.659Z,2
2022-12-23T03:38:05.350Z,3
2022-12-23T03:45:39.424Z,4
2022-12-23T03:51:48.954Z,3
2022-12-23T03:59:13.792Z,3
2022-12-23T04:06:38.597Z,3
2022-12-23T04:12:49.325Z,6
2022-12-23T04:17:53.995Z,4
2022-12-23T04:23:56.413Z,5
2022-12-23T04:30:07.077Z,5
2022-12-23T04:36:17.868Z,5
2022-12-23T04:42:36.605Z,4
2022-12-23T04:48:47.288Z,6
2022-12-23T04:54:57.987Z,4
2022-12-23T05:00:10.890Z,6
2022-12-23T05:06:21.563Z,7
2022-12-23T05:12:32.227Z,6
2022-12-23T05:18:42.873Z,5
2022-12-23T05:24:45.324Z,6
2022-12-23T05:30:56.015Z,7
2022-12-23T05:37:06.696Z,5
2022-12-23T05:43:17.367Z,4
2022-12-23T05:49:28.057Z,5
2022-12-23T05:56:52.811Z,6
2022-12-23T06:03:03.662Z,6
2022-12-23T06:09:14.168Z,6
2022-12-23T06:15:24.820Z,4
2022-12-23T06:22:41.434Z,8
2022-12-23T06:28:52.105Z,4
2022-12-23T06:35:02.735Z,4
2022-12-23T06:41:13.394Z,7
2022-12-23T06:47:24.105Z,5
2022-12-23T06:53:34.756Z,6
2022-12-23T06:59:45.398Z,5
2022-12-23T07:05:56.113Z,4
2022-12-23T07:11:00.876Z,4
2022-12-23T07:16:05.506Z,4
2022-12-23T07:24:28.243Z,4
2022-12-23T07:31:52.948Z,4
2022-12-23T07:39:25.864Z,3
2022-12-23T07:45:36.648Z,3
2022-12-23T07:51:47.178Z,5
2022-12-23T07:57:57.879Z,3
2022-12-23T08:04:08.668Z,3
2022-12-23T08:10:19.181Z,4
2022-12-23T08:16:29.988Z,5
2022-12-23T08:23:46.486Z,5
2022-12-23T08:29:57.132Z,6
2022-12-23T08:36:07.774Z,4
2022-12-23T08:42:18.497Z,4
2022-12-23T08:48:29.168Z,3
2022-12-23T08:54:39.804Z,3
2022-12-23T09:00:50.473Z,4
2022-12-23T09:05:55.188Z,5
2022-12-23T09:12:05.874Z,3
2022-12-23T09:18:16.554Z,2
2022-12-23T09:24:27.184Z,4
2022-12-23T09:30:29.670Z,4
2022-12-23T09:36:40.343Z,2
2022-12-23T09:42:50.993Z,4
2022-12-23T09:49:01.632Z,9
2022-12-23T09:55:12.357Z,12
2022-12-23T10:00:25.215Z,6
2022-12-23T10:06:35.894Z,5
2022-12-23T10:12:54.791Z,6
2022-12-23T10:19:05.430Z,6
2022-12-23T10:26:30.246Z,6
2022-12-23T10:32:24.675Z,11
2022-12-23T10:37:29.231Z,7
2022-12-23T10:43:39.890Z,5
2022-12-23T10:49:50.584Z,7
2022-12-23T10:56:01.231Z,7
2022-12-23T11:02:12.188Z,9
2022-12-23T11:08:22.597Z,7
2022-12-23T11:14:33.229Z,3
2022-12-23T11:20:43.877Z,9
2022-12-23T11:26:46.514Z,5
2022-12-23T11:32:57.047Z,7
2022-12-23T11:39:07.706Z,5
2022-12-23T11:45:18.453Z,7
2022-12-23T11:51:29.063Z,8
2022-12-23T11:57:39.720Z,18
2022-12-23T12:03:50.453Z,20
2022-12-23T12:10:01.027Z,7
2022-12-23T12:16:11.764Z,3
2022-12-23T12:22:22.385Z,5
2022-12-23T12:28:41.227Z,4
2022-12-23T12:34:51.900Z,4
2022-12-23T12:41:02.636Z,6
2022-12-23T12:47:36.084Z,4
2022-12-23T12:53:23.909Z,4
2022-12-23T12:59:34.582Z,3
2022-12-23T13:05:51.700Z,8
2022-12-23T13:11:55.904Z,8
2022-12-23T13:18:06.593Z,4
2022-12-23T13:23:41.536Z,2
2022-12-23T13:29:21.957Z,7
2022-12-23T13:35:32.640Z,9
2022-12-23T13:41:35.074Z,3
2022-12-23T13:47:45.762Z,4
2022-12-23T13:54:00.765Z,7
2022-12-23T14:00:07.068Z,4
2022-12-23T14:06:17.732Z,12
2022-12-23T14:12:28.435Z,4
2022-12-23T14:18:39.079Z,6
2022-12-23T14:24:49.754Z,3
2022-12-23T14:31:00.446Z,5
2022-12-23T14:38:17.008Z,8
2022-12-23T14:44:27.688Z,3
2022-12-23T14:50:38.360Z,16
2022-12-23T14:56:49.007Z,2
2022-12-23T15:02:01.943Z,3
2022-12-23T15:08:12.619Z,1
2022-12-23T15:14:23.256Z,1
2022-12-23T15:20:33.924Z,1
2022-12-23T15:27:09.875Z,1
2022-12-23T15:32:55.316Z,1
2022-12-23T15:38:57.763Z,0
2022-12-23T15:45:08.404Z,1
2022-12-23T15:51:49.580Z,1
2022-12-23T15:57:29.729Z,1
2022-12-23T16:03:40.624Z,1
2022-12-23T16:09:51.073Z,2
2022-12-23T16:16:01.784Z,2
2022-12-23T16:22:12.410Z,1
2022-12-23T16:28:23.096Z,2
2022-12-23T16:34:33.697Z,1
2022-12-23T16:40:36.232Z,2
2022-12-23T16:46:46.843Z,1
2022-12-23T16:52:57.544Z,1
2022-12-23T16:59:08.214Z,2
2022-12-23T17:05:18.855Z,2
2022-12-23T17:11:29.531Z,2
2022-12-23T17:17:40.229Z,3
2022-12-23T17:23:50.840Z,5
2022-12-23T17:29:03.775Z,6
2022-12-23T17:35:22.662Z,7
2022-12-23T17:41:25.125Z,7
2022-12-23T17:47:35.788Z,8
2022-12-23T17:53:47.472Z,9
2022-12-23T17:59:57.143Z,6
2022-12-23T18:06:07.773Z,6
2022-12-23T18:12:24.668Z,8
2022-12-23T18:18:41.722Z,12
2022-12-23T18:24:39.940Z,12
2022-12-23T18:30:50.554Z,12
2022-12-23T18:37:01.089Z,13
2022-12-23T18:43:03.579Z,12
2022-12-23T18:49:14.296Z,13
2022-12-23T18:55:24.915Z,14
2022-12-23T19:01:35.629Z,14
2022-12-23T19:07:46.257Z,10
2022-12-23T19:13:57.003Z,13
2022-12-23T19:20:07.555Z,13
2022-12-23T19:26:18.246Z,13
2022-12-23T19:32:28.919Z,12
2022-12-23T19:38:39.613Z,12
2022-12-23T19:44:42.067Z,10
2022-12-23T19:50:52.711Z,13
2022-12-23T19:57:03.504Z,12
2022-12-23T20:02:16.388Z,11
2022-12-23T20:08:26.963Z,10
2022-12-23T20:14:37.611Z,17
2022-12-23T20:20:48.317Z,10
2022-12-23T20:26:58.955Z,12
2022-12-23T20:33:09.623Z,11
2022-12-23T20:39:20.323Z,9
2022-12-23T20:45:30.957Z,12
2022-12-23T20:52:47.536Z,9
2022-12-23T20:58:58.319Z,10
2022-12-23T21:06:23.011Z,9
2022-12-23T21:12:33.695Z,10
2022-12-23T21:18:44.400Z,8
2022-12-23T21:24:55.004Z,8
2022-12-23T21:31:05.778Z,11
2022-12-23T21:37:16.394Z,9
2022-12-23T21:42:21.067Z,8
2022-12-23T21:48:31.760Z,10
2022-12-23T21:54:34.259Z,13
2022-12-23T22:00:44.935Z,10
2022-12-23T22:06:55.561Z,7
2022-12-23T22:13:06.286Z,14
2022-12-23T22:19:16.891Z,9
2022-12-23T22:25:27.618Z,9
2022-12-23T22:30:40.510Z,13
2022-12-23T22:36:51.298Z,8
2022-12-23T22:43:01.819Z,13
2022-12-23T22:49:12.820Z,14
2022-12-23T22:56:29.080Z,14
2022-12-23T23:02:39.729Z,13
2022-12-23T23:08:50.452Z,13
2022-12-23T23:16:15.281Z,10
2022-12-23T23:22:25.908Z,12
2022-12-23T23:28:36.550Z,12
2022-12-23T23:34:47.195Z,12
2022-12-23T23:40:57.883Z,15
2022-12-23T23:47:08.565Z,15
2022-12-23T23:54:25.144Z,15
